sensor_id;sensor_type;location;lat;lon;timestamp;P1;durP1;ratioP1;P2;durP2;ratioP2
46651;SDS011;32377;52.182;5.398;2023-04-05T00:00:27;15.80;;;7.43;;
46651;SDS011;32377;52.182;5.398;2023-04-05T00:02:55;14.10;;;7.97;;
46651;SDS011;32377;52.182;5.398;2023-04-05T00:05:23;13.57;;;7.40;;
46651;SDS011;32377;52.182;5.398;2023-04-05T00:07:58;15.25;;;7.78;;
46651;SDS011;32377;52.182;5.398;2023-04-05T00:10:29;14.97;;;7.30;;
46651;SDS011;32377;52.182;5.398;2023-04-05T00:12:58;15.07;;;7.77;;
46651;SDS011;32377;52.182;5.398;2023-04-05T00:15:24;16.47;;;7.93;;
46651;SDS011;32377;52.182;5.398;2023-04-05T00:17:51;14.77;;;7.70;;
46651;SDS011;32377;52.182;5.398;2023-04-05T00:20:18;17.70;;;8.10;;
46651;SDS011;32377;52.182;5.398;2023-04-05T00:22:44;18.40;;;8.97;;
46651;SDS011;32377;52.182;5.398;2023-04-05T00:25:10;16.30;;;7.87;;
46651;SDS011;32377;52.182;5.398;2023-04-05T00:27:36;14.57;;;7.43;;
46651;SDS011;32377;52.182;5.398;2023-04-05T00:30:02;17.53;;;7.77;;
46651;SDS011;32377;52.182;5.398;2023-04-05T00:32:29;13.93;;;8.47;;
46651;SDS011;32377;52.182;5.398;2023-04-05T00:34:55;13.30;;;7.57;;
46651;SDS011;32377;52.182;5.398;2023-04-05T00:37:20;14.77;;;7.67;;
46651;SDS011;32377;52.182;5.398;2023-04-05T00:39:46;14.23;;;8.03;;
46651;SDS011;32377;52.182;5.398;2023-04-05T00:42:12;18.63;;;8.93;;
46651;SDS011;32377;52.182;5.398;2023-04-05T00:44:38;14.43;;;7.93;;
46651;SDS011;32377;52.182;5.398;2023-04-05T00:47:05;16.43;;;8.40;;
46651;SDS011;32377;52.182;5.398;2023-04-05T00:49:32;15.17;;;8.03;;
46651;SDS011;32377;52.182;5.398;2023-04-05T00:51:59;16.30;;;7.60;;
46651;SDS011;32377;52.182;5.398;2023-04-05T00:54:25;16.63;;;8.40;;
46651;SDS011;32377;52.182;5.398;2023-04-05T00:56:54;15.23;;;7.77;;
46651;SDS011;32377;52.182;5.398;2023-04-05T00:59:21;14.50;;;8.33;;
46651;SDS011;32377;52.182;5.398;2023-04-05T01:01:48;15.50;;;8.10;;
46651;SDS011;32377;52.182;5.398;2023-04-05T01:04:25;17.10;;;8.70;;
46651;SDS011;32377;52.182;5.398;2023-04-05T01:09:44;19.00;;;8.60;;
46651;SDS011;32377;52.182;5.398;2023-04-05T01:12:18;16.00;;;9.00;;
46651;SDS011;32377;52.182;5.398;2023-04-05T01:14:47;17.87;;;7.87;;
46651;SDS011;32377;52.182;5.398;2023-04-05T01:17:17;13.10;;;7.70;;
46651;SDS011;32377;52.182;5.398;2023-04-05T01:19:56;18.53;;;7.90;;
46651;SDS011;32377;52.182;5.398;2023-04-05T01:25:09;15.37;;;7.60;;
46651;SDS011;32377;52.182;5.398;2023-04-05T01:28:15;21.77;;;8.23;;
46651;SDS011;32377;52.182;5.398;2023-04-05T01:30:45;20.27;;;8.47;;
46651;SDS011;32377;52.182;5.398;2023-04-05T01:38:37;14.37;;;8.57;;
46651;SDS011;32377;52.182;5.398;2023-04-05T01:41:04;16.20;;;8.83;;
46651;SDS011;32377;52.182;5.398;2023-04-05T01:43:30;13.33;;;8.00;;
46651;SDS011;32377;52.182;5.398;2023-04-05T01:45:56;17.97;;;8.97;;
46651;SDS011;32377;52.182;5.398;2023-04-05T01:48:21;16.37;;;8.10;;
46651;SDS011;32377;52.182;5.398;2023-04-05T01:50:47;15.90;;;8.23;;
46651;SDS011;32377;52.182;5.398;2023-04-05T01:53:13;15.67;;;8.37;;
46651;SDS011;32377;52.182;5.398;2023-04-05T01:55:38;17.17;;;8.80;;
46651;SDS011;32377;52.182;5.398;2023-04-05T01:58:04;17.23;;;8.93;;
46651;SDS011;32377;52.182;5.398;2023-04-05T02:00:30;14.17;;;7.97;;
46651;SDS011;32377;52.182;5.398;2023-04-05T02:02:56;15.37;;;7.97;;
46651;SDS011;32377;52.182;5.398;2023-04-05T02:05:22;16.37;;;8.93;;
46651;SDS011;32377;52.182;5.398;2023-04-05T02:07:47;19.13;;;8.33;;
46651;SDS011;32377;52.182;5.398;2023-04-05T02:10:13;17.23;;;8.43;;
46651;SDS011;32377;52.182;5.398;2023-04-05T02:12:39;15.80;;;9.23;;
46651;SDS011;32377;52.182;5.398;2023-04-05T02:15:05;16.23;;;9.40;;
46651;SDS011;32377;52.182;5.398;2023-04-05T02:17:31;22.77;;;9.73;;
46651;SDS011;32377;52.182;5.398;2023-04-05T02:20:05;17.73;;;8.70;;
46651;SDS011;32377;52.182;5.398;2023-04-05T02:22:32;19.03;;;9.47;;
46651;SDS011;32377;52.182;5.398;2023-04-05T02:24:58;16.87;;;9.10;;
46651;SDS011;32377;52.182;5.398;2023-04-05T02:27:23;15.80;;;8.17;;
46651;SDS011;32377;52.182;5.398;2023-04-05T02:29:49;13.47;;;8.73;;
46651;SDS011;32377;52.182;5.398;2023-04-05T02:32:16;17.33;;;8.83;;
46651;SDS011;32377;52.182;5.398;2023-04-05T02:34:42;16.87;;;8.27;;
46651;SDS011;32377;52.182;5.398;2023-04-05T02:37:08;16.17;;;8.60;;
46651;SDS011;32377;52.182;5.398;2023-04-05T02:39:33;20.90;;;9.60;;
46651;SDS011;32377;52.182;5.398;2023-04-05T02:41:59;16.13;;;8.67;;
46651;SDS011;32377;52.182;5.398;2023-04-05T02:44:24;18.07;;;9.13;;
46651;SDS011;32377;52.182;5.398;2023-04-05T02:46:50;15.90;;;8.60;;
46651;SDS011;32377;52.182;5.398;2023-04-05T02:49:15;16.87;;;8.70;;
46651;SDS011;32377;52.182;5.398;2023-04-05T02:51:41;15.47;;;9.10;;
46651;SDS011;32377;52.182;5.398;2023-04-05T02:54:07;17.83;;;8.97;;
46651;SDS011;32377;52.182;5.398;2023-04-05T02:56:32;16.10;;;9.20;;
46651;SDS011;32377;52.182;5.398;2023-04-05T02:58:58;18.23;;;9.10;;
46651;SDS011;32377;52.182;5.398;2023-04-05T03:01:24;21.10;;;9.57;;
46651;SDS011;32377;52.182;5.398;2023-04-05T03:03:50;18.03;;;9.80;;
46651;SDS011;32377;52.182;5.398;2023-04-05T03:06:16;17.40;;;9.10;;
46651;SDS011;32377;52.182;5.398;2023-04-05T03:08:42;15.60;;;8.83;;
46651;SDS011;32377;52.182;5.398;2023-04-05T03:11:08;18.30;;;9.23;;
46651;SDS011;32377;52.182;5.398;2023-04-05T03:13:34;17.93;;;10.13;;
46651;SDS011;32377;52.182;5.398;2023-04-05T03:16:04;19.60;;;8.80;;
46651;SDS011;32377;52.182;5.398;2023-04-05T03:18:30;20.23;;;10.10;;
46651;SDS011;32377;52.182;5.398;2023-04-05T03:20:56;20.43;;;10.43;;
46651;SDS011;32377;52.182;5.398;2023-04-05T03:23:26;23.13;;;10.40;;
46651;SDS011;32377;52.182;5.398;2023-04-05T03:28:26;20.83;;;10.70;;
46651;SDS011;32377;52.182;5.398;2023-04-05T03:30:52;20.03;;;9.73;;
46651;SDS011;32377;52.182;5.398;2023-04-05T03:33:18;24.07;;;10.00;;
46651;SDS011;32377;52.182;5.398;2023-04-05T03:35:44;19.00;;;9.63;;
46651;SDS011;32377;52.182;5.398;2023-04-05T03:38:10;18.80;;;9.90;;
46651;SDS011;32377;52.182;5.398;2023-04-05T03:40:36;17.00;;;9.43;;
46651;SDS011;32377;52.182;5.398;2023-04-05T03:43:02;22.93;;;10.47;;
46651;SDS011;32377;52.182;5.398;2023-04-05T03:45:28;24.23;;;9.60;;
46651;SDS011;32377;52.182;5.398;2023-04-05T03:47:54;19.70;;;9.87;;
46651;SDS011;32377;52.182;5.398;2023-04-05T03:50:20;19.40;;;9.70;;
46651;SDS011;32377;52.182;5.398;2023-04-05T03:52:46;18.57;;;9.80;;
46651;SDS011;32377;52.182;5.398;2023-04-05T03:55:12;21.97;;;10.63;;
46651;SDS011;32377;52.182;5.398;2023-04-05T03:59:14;25.30;;;10.97;;
46651;SDS011;32377;52.182;5.398;2023-04-05T04:01:39;20.70;;;11.17;;
46651;SDS011;32377;52.182;5.398;2023-04-05T04:04:06;25.33;;;11.57;;
46651;SDS011;32377;52.182;5.398;2023-04-05T04:06:31;26.97;;;12.37;;
46651;SDS011;32377;52.182;5.398;2023-04-05T04:08:57;23.07;;;11.47;;
46651;SDS011;32377;52.182;5.398;2023-04-05T04:11:23;25.10;;;12.10;;
46651;SDS011;32377;52.182;5.398;2023-04-05T04:13:48;26.33;;;12.43;;
46651;SDS011;32377;52.182;5.398;2023-04-05T04:16:14;20.80;;;11.77;;
46651;SDS011;32377;52.182;5.398;2023-04-05T04:18:41;23.10;;;11.27;;
46651;SDS011;32377;52.182;5.398;2023-04-05T04:21:07;23.57;;;11.73;;
46651;SDS011;32377;52.182;5.398;2023-04-05T04:23:34;21.80;;;12.10;;
46651;SDS011;32377;52.182;5.398;2023-04-05T04:26:02;24.37;;;11.93;;
46651;SDS011;32377;52.182;5.398;2023-04-05T04:28:28;26.73;;;12.23;;
46651;SDS011;32377;52.182;5.398;2023-04-05T04:30:54;21.30;;;11.20;;
46651;SDS011;32377;52.182;5.398;2023-04-05T04:33:19;24.43;;;11.77;;
46651;SDS011;32377;52.182;5.398;2023-04-05T04:35:45;20.90;;;11.53;;
46651;SDS011;32377;52.182;5.398;2023-04-05T04:38:11;27.77;;;11.77;;
46651;SDS011;32377;52.182;5.398;2023-04-05T04:40:44;28.40;;;14.20;;
46651;SDS011;32377;52.182;5.398;2023-04-05T04:43:14;28.47;;;13.27;;
46651;SDS011;32377;52.182;5.398;2023-04-05T04:45:47;30.53;;;13.67;;
46651;SDS011;32377;52.182;5.398;2023-04-05T04:48:13;29.23;;;12.43;;
46651;SDS011;32377;52.182;5.398;2023-04-05T04:50:42;30.33;;;12.40;;
46651;SDS011;32377;52.182;5.398;2023-04-05T04:53:09;27.97;;;13.00;;
46651;SDS011;32377;52.182;5.398;2023-04-05T04:55:36;25.60;;;12.13;;
46651;SDS011;32377;52.182;5.398;2023-04-05T04:58:02;25.77;;;12.37;;
46651;SDS011;32377;52.182;5.398;2023-04-05T05:00:34;28.53;;;12.97;;
46651;SDS011;32377;52.182;5.398;2023-04-05T05:03:01;29.13;;;12.57;;
46651;SDS011;32377;52.182;5.398;2023-04-05T05:05:27;29.07;;;12.77;;
46651;SDS011;32377;52.182;5.398;2023-04-05T05:07:53;24.20;;;12.70;;
46651;SDS011;32377;52.182;5.398;2023-04-05T05:10:18;28.60;;;13.37;;
46651;SDS011;32377;52.182;5.398;2023-04-05T05:12:44;26.83;;;13.07;;
46651;SDS011;32377;52.182;5.398;2023-04-05T05:15:12;30.33;;;14.67;;
46651;SDS011;32377;52.182;5.398;2023-04-05T05:17:38;36.63;;;14.50;;
46651;SDS011;32377;52.182;5.398;2023-04-05T05:20:03;36.80;;;15.73;;
46651;SDS011;32377;52.182;5.398;2023-04-05T05:22:33;38.20;;;15.53;;
46651;SDS011;32377;52.182;5.398;2023-04-05T05:24:59;34.03;;;16.23;;
46651;SDS011;32377;52.182;5.398;2023-04-05T05:27:24;36.63;;;17.13;;
46651;SDS011;32377;52.182;5.398;2023-04-05T05:29:50;35.33;;;16.73;;
46651;SDS011;32377;52.182;5.398;2023-04-05T05:32:16;37.00;;;16.63;;
46651;SDS011;32377;52.182;5.398;2023-04-05T05:34:41;36.20;;;15.60;;
46651;SDS011;32377;52.182;5.398;2023-04-05T05:37:09;36.53;;;16.57;;
46651;SDS011;32377;52.182;5.398;2023-04-05T05:39:36;33.77;;;16.47;;
46651;SDS011;32377;52.182;5.398;2023-04-05T05:42:02;38.10;;;15.07;;
46651;SDS011;32377;52.182;5.398;2023-04-05T05:44:28;33.10;;;14.60;;
46651;SDS011;32377;52.182;5.398;2023-04-05T05:46:54;29.80;;;14.80;;
46651;SDS011;32377;52.182;5.398;2023-04-05T05:49:20;31.00;;;15.23;;
46651;SDS011;32377;52.182;5.398;2023-04-05T05:51:47;30.60;;;15.27;;
46651;SDS011;32377;52.182;5.398;2023-04-05T05:54:13;28.53;;;14.47;;
46651;SDS011;32377;52.182;5.398;2023-04-05T05:56:39;31.57;;;14.10;;
46651;SDS011;32377;52.182;5.398;2023-04-05T05:59:04;23.77;;;13.13;;
46651;SDS011;32377;52.182;5.398;2023-04-05T06:01:30;31.73;;;13.83;;
46651;SDS011;32377;52.182;5.398;2023-04-05T06:03:58;22.50;;;12.90;;
46651;SDS011;32377;52.182;5.398;2023-04-05T06:06:24;23.10;;;11.83;;
46651;SDS011;32377;52.182;5.398;2023-04-05T06:08:51;25.97;;;12.10;;
46651;SDS011;32377;52.182;5.398;2023-04-05T06:11:17;21.67;;;13.20;;
46651;SDS011;32377;52.182;5.398;2023-04-05T06:13:43;24.23;;;12.73;;
46651;SDS011;32377;52.182;5.398;2023-04-05T06:16:09;21.27;;;11.63;;
46651;SDS011;32377;52.182;5.398;2023-04-05T06:18:35;26.23;;;11.40;;
46651;SDS011;32377;52.182;5.398;2023-04-05T06:21:00;21.40;;;12.03;;
46651;SDS011;32377;52.182;5.398;2023-04-05T06:23:26;23.73;;;11.30;;
46651;SDS011;32377;52.182;5.398;2023-04-05T06:25:51;17.37;;;10.90;;
46651;SDS011;32377;52.182;5.398;2023-04-05T06:28:17;17.50;;;10.60;;
46651;SDS011;32377;52.182;5.398;2023-04-05T06:30:42;19.97;;;10.70;;
46651;SDS011;32377;52.182;5.398;2023-04-05T06:33:09;20.13;;;10.83;;
46651;SDS011;32377;52.182;5.398;2023-04-05T06:35:34;19.57;;;11.43;;
46651;SDS011;32377;52.182;5.398;2023-04-05T06:38:00;19.30;;;10.33;;
46651;SDS011;32377;52.182;5.398;2023-04-05T06:40:25;19.57;;;10.93;;
46651;SDS011;32377;52.182;5.398;2023-04-05T06:42:51;17.50;;;10.20;;
46651;SDS011;32377;52.182;5.398;2023-04-05T06:45:16;17.23;;;9.87;;
46651;SDS011;32377;52.182;5.398;2023-04-05T06:47:43;18.93;;;10.00;;
46651;SDS011;32377;52.182;5.398;2023-04-05T06:50:09;22.20;;;10.33;;
46651;SDS011;32377;52.182;5.398;2023-04-05T06:52:35;16.93;;;10.37;;
46651;SDS011;32377;52.182;5.398;2023-04-05T06:55:01;22.33;;;10.33;;
46651;SDS011;32377;52.182;5.398;2023-04-05T06:57:27;19.37;;;10.50;;
46651;SDS011;32377;52.182;5.398;2023-04-05T06:59:53;16.50;;;9.83;;
46651;SDS011;32377;52.182;5.398;2023-04-05T07:02:19;24.03;;;10.60;;
46651;SDS011;32377;52.182;5.398;2023-04-05T07:04:45;18.13;;;10.30;;
46651;SDS011;32377;52.182;5.398;2023-04-05T07:07:12;18.67;;;10.17;;
46651;SDS011;32377;52.182;5.398;2023-04-05T07:09:38;18.47;;;10.00;;
46651;SDS011;32377;52.182;5.398;2023-04-05T07:12:04;16.93;;;10.47;;
46651;SDS011;32377;52.182;5.398;2023-04-05T07:14:32;17.17;;;9.23;;
46651;SDS011;32377;52.182;5.398;2023-04-05T07:16:59;23.20;;;9.73;;
46651;SDS011;32377;52.182;5.398;2023-04-05T07:19:25;18.20;;;9.60;;
46651;SDS011;32377;52.182;5.398;2023-04-05T07:21:50;16.43;;;9.77;;
46651;SDS011;32377;52.182;5.398;2023-04-05T07:24:16;17.37;;;9.40;;
46651;SDS011;32377;52.182;5.398;2023-04-05T07:26:42;19.17;;;9.30;;
46651;SDS011;32377;52.182;5.398;2023-04-05T07:29:08;17.40;;;9.33;;
46651;SDS011;32377;52.182;5.398;2023-04-05T07:31:35;16.37;;;8.43;;
46651;SDS011;32377;52.182;5.398;2023-04-05T07:34:00;18.53;;;8.67;;
46651;SDS011;32377;52.182;5.398;2023-04-05T07:36:26;14.80;;;9.20;;
46651;SDS011;32377;52.182;5.398;2023-04-05T07:38:55;15.67;;;8.83;;
46651;SDS011;32377;52.182;5.398;2023-04-05T07:41:21;16.73;;;8.93;;
46651;SDS011;32377;52.182;5.398;2023-04-05T07:43:47;17.60;;;9.20;;
46651;SDS011;32377;52.182;5.398;2023-04-05T07:46:13;18.70;;;9.77;;
46651;SDS011;32377;52.182;5.398;2023-04-05T07:48:40;15.73;;;8.87;;
46651;SDS011;32377;52.182;5.398;2023-04-05T07:51:05;14.57;;;9.10;;
46651;SDS011;32377;52.182;5.398;2023-04-05T07:53:32;17.83;;;9.23;;
46651;SDS011;32377;52.182;5.398;2023-04-05T07:56:05;14.90;;;8.70;;
46651;SDS011;32377;52.182;5.398;2023-04-05T07:58:32;18.03;;;9.07;;
46651;SDS011;32377;52.182;5.398;2023-04-05T08:01:02;15.77;;;8.43;;
46651;SDS011;32377;52.182;5.398;2023-04-05T08:03:28;15.75;;;8.88;;
46651;SDS011;32377;52.182;5.398;2023-04-05T08:05:54;21.90;;;9.55;;
46651;SDS011;32377;52.182;5.398;2023-04-05T08:08:20;17.27;;;8.95;;
46651;SDS011;32377;52.182;5.398;2023-04-05T08:10:47;14.90;;;8.50;;
46651;SDS011;32377;52.182;5.398;2023-04-05T08:13:12;12.90;;;8.82;;
46651;SDS011;32377;52.182;5.398;2023-04-05T08:15:38;18.38;;;8.93;;
46651;SDS011;32377;52.182;5.398;2023-04-05T08:18:04;15.23;;;8.57;;
46651;SDS011;32377;52.182;5.398;2023-04-05T08:20:30;16.08;;;8.10;;
46651;SDS011;32377;52.182;5.398;2023-04-05T08:22:56;17.33;;;8.77;;
46651;SDS011;32377;52.182;5.398;2023-04-05T08:25:22;17.38;;;8.88;;
46651;SDS011;32377;52.182;5.398;2023-04-05T08:27:47;16.50;;;7.97;;
46651;SDS011;32377;52.182;5.398;2023-04-05T08:30:13;15.20;;;7.72;;
46651;SDS011;32377;52.182;5.398;2023-04-05T08:32:40;12.30;;;7.60;;
46651;SDS011;32377;52.182;5.398;2023-04-05T08:35:06;13.00;;;7.55;;
46651;SDS011;32377;52.182;5.398;2023-04-05T08:37:34;15.48;;;8.25;;
46651;SDS011;32377;52.182;5.398;2023-04-05T08:40:01;19.67;;;7.28;;
46651;SDS011;32377;52.182;5.398;2023-04-05T08:42:35;12.73;;;7.18;;
46651;SDS011;32377;52.182;5.398;2023-04-05T08:45:07;10.35;;;6.55;;
46651;SDS011;32377;52.182;5.398;2023-04-05T08:47:35;14.73;;;7.80;;
46651;SDS011;32377;52.182;5.398;2023-04-05T08:50:03;13.93;;;8.10;;
46651;SDS011;32377;52.182;5.398;2023-04-05T08:52:32;13.68;;;7.50;;
46651;SDS011;32377;52.182;5.398;2023-04-05T08:55:03;10.93;;;6.70;;
46651;SDS011;32377;52.182;5.398;2023-04-05T08:57:32;15.77;;;6.38;;
46651;SDS011;32377;52.182;5.398;2023-04-05T09:00:03;10.55;;;6.28;;
46651;SDS011;32377;52.182;5.398;2023-04-05T09:02:32;10.20;;;6.45;;
46651;SDS011;32377;52.182;5.398;2023-04-05T09:04:58;11.52;;;6.70;;
46651;SDS011;32377;52.182;5.398;2023-04-05T09:07:24;10.75;;;6.32;;
46651;SDS011;32377;52.182;5.398;2023-04-05T09:09:53;11.27;;;6.15;;
46651;SDS011;32377;52.182;5.398;2023-04-05T09:12:23;10.27;;;6.00;;
46651;SDS011;32377;52.182;5.398;2023-04-05T09:14:49;12.57;;;6.35;;
46651;SDS011;32377;52.182;5.398;2023-04-05T09:17:16;11.75;;;6.15;;
46651;SDS011;32377;52.182;5.398;2023-04-05T09:19:45;10.82;;;5.95;;
46651;SDS011;32377;52.182;5.398;2023-04-05T09:22:14;14.43;;;6.65;;
46651;SDS011;32377;52.182;5.398;2023-04-05T09:24:42;11.55;;;6.68;;
46651;SDS011;32377;52.182;5.398;2023-04-05T09:27:11;11.52;;;6.65;;
46651;SDS011;32377;52.182;5.398;2023-04-05T09:29:42;10.13;;;6.68;;
46651;SDS011;32377;52.182;5.398;2023-04-05T09:32:12;10.45;;;6.90;;
46651;SDS011;32377;52.182;5.398;2023-04-05T09:34:39;14.23;;;7.57;;
46651;SDS011;32377;52.182;5.398;2023-04-05T09:37:15;12.40;;;6.85;;
46651;SDS011;32377;52.182;5.398;2023-04-05T09:39:43;13.82;;;6.90;;
46651;SDS011;32377;52.182;5.398;2023-04-05T09:42:11;12.43;;;7.40;;
46651;SDS011;32377;52.182;5.398;2023-04-05T09:44:52;12.80;;;7.88;;
46651;SDS011;32377;52.182;5.398;2023-04-05T09:47:25;13.57;;;6.55;;
46651;SDS011;32377;52.182;5.398;2023-04-05T09:49:55;12.90;;;6.93;;
46651;SDS011;32377;52.182;5.398;2023-04-05T09:52:23;16.23;;;7.53;;
46651;SDS011;32377;52.182;5.398;2023-04-05T09:54:53;12.75;;;7.38;;
46651;SDS011;32377;52.182;5.398;2023-04-05T09:59:14;11.27;;;6.80;;
46651;SDS011;32377;52.182;5.398;2023-04-05T10:01:44;12.35;;;6.55;;
46651;SDS011;32377;52.182;5.398;2023-04-05T10:04:15;13.13;;;6.68;;
46651;SDS011;32377;52.182;5.398;2023-04-05T10:06:43;12.10;;;7.25;;
46651;SDS011;32377;52.182;5.398;2023-04-05T10:09:10;11.65;;;7.43;;
46651;SDS011;32377;52.182;5.398;2023-04-05T10:11:38;13.32;;;7.60;;
46651;SDS011;32377;52.182;5.398;2023-04-05T10:14:08;13.35;;;7.28;;
46651;SDS011;32377;52.182;5.398;2023-04-05T10:19:31;12.07;;;7.45;;
46651;SDS011;32377;52.182;5.398;2023-04-05T10:22:14;11.93;;;7.47;;
46651;SDS011;32377;52.182;5.398;2023-04-05T10:24:53;12.18;;;7.30;;
46651;SDS011;32377;52.182;5.398;2023-04-05T10:28:29;11.52;;;7.13;;
46651;SDS011;32377;52.182;5.398;2023-04-05T10:30:34;11.95;;;6.93;;
46651;SDS011;32377;52.182;5.398;2023-04-05T10:35:54;12.63;;;7.50;;
46651;SDS011;32377;52.182;5.398;2023-04-05T10:39:21;14.65;;;7.18;;
46651;SDS011;32377;52.182;5.398;2023-04-05T10:41:28;12.07;;;7.00;;
46651;SDS011;32377;52.182;5.398;2023-04-05T10:44:15;10.50;;;7.25;;
46651;SDS011;32377;52.182;5.398;2023-04-05T10:46:40;11.55;;;8.02;;
46651;SDS011;32377;52.182;5.398;2023-04-05T10:49:11;11.23;;;7.35;;
46651;SDS011;32377;52.182;5.398;2023-04-05T10:51:47;11.85;;;7.05;;
46651;SDS011;32377;52.182;5.398;2023-04-05T10:54:13;17.98;;;7.70;;
46651;SDS011;32377;52.182;5.398;2023-04-05T10:56:41;10.85;;;7.68;;
46651;SDS011;32377;52.182;5.398;2023-04-05T10:59:07;13.32;;;7.20;;
46651;SDS011;32377;52.182;5.398;2023-04-05T11:01:34;12.13;;;7.20;;
46651;SDS011;32377;52.182;5.398;2023-04-05T11:04:15;10.85;;;7.38;;
46651;SDS011;32377;52.182;5.398;2023-04-05T11:06:41;14.18;;;6.90;;
46651;SDS011;32377;52.182;5.398;2023-04-05T11:09:13;14.95;;;7.65;;
46651;SDS011;32377;52.182;5.398;2023-04-05T11:11:45;13.15;;;7.82;;
46651;SDS011;32377;52.182;5.398;2023-04-05T11:14:24;11.48;;;7.15;;
46651;SDS011;32377;52.182;5.398;2023-04-05T11:17:00;10.90;;;7.35;;
46651;SDS011;32377;52.182;5.398;2023-04-05T11:22:11;12.63;;;7.10;;
46651;SDS011;32377;52.182;5.398;2023-04-05T11:27:31;13.05;;;7.28;;
46651;SDS011;32377;52.182;5.398;2023-04-05T11:30:01;12.00;;;7.05;;
46651;SDS011;32377;52.182;5.398;2023-04-05T11:35:16;14.30;;;6.72;;
46651;SDS011;32377;52.182;5.398;2023-04-05T11:40:28;14.30;;;7.57;;
46651;SDS011;32377;52.182;5.398;2023-04-05T11:42:58;11.35;;;7.07;;
46651;SDS011;32377;52.182;5.398;2023-04-05T11:45:30;14.38;;;7.95;;
46651;SDS011;32377;52.182;5.398;2023-04-05T11:47:58;13.75;;;7.68;;
46651;SDS011;32377;52.182;5.398;2023-04-05T11:50:30;12.73;;;8.10;;
46651;SDS011;32377;52.182;5.398;2023-04-05T11:53:13;13.07;;;7.88;;
46651;SDS011;32377;52.182;5.398;2023-04-05T11:55:41;14.50;;;7.32;;
46651;SDS011;32377;52.182;5.398;2023-04-05T11:58:12;10.32;;;6.93;;
46651;SDS011;32377;52.182;5.398;2023-04-05T12:00:46;14.75;;;7.75;;
46651;SDS011;32377;52.182;5.398;2023-04-05T12:03:20;10.75;;;7.25;;
46651;SDS011;32377;52.182;5.398;2023-04-05T12:05:50;11.98;;;7.60;;
46651;SDS011;32377;52.182;5.398;2023-04-05T12:08:16;12.70;;;6.90;;
46651;SDS011;32377;52.182;5.398;2023-04-05T12:10:55;15.98;;;8.15;;
46651;SDS011;32377;52.182;5.398;2023-04-05T12:13:29;10.77;;;6.65;;
46651;SDS011;32377;52.182;5.398;2023-04-05T12:15:57;9.68;;;6.95;;
46651;SDS011;32377;52.182;5.398;2023-04-05T12:18:24;10.13;;;7.00;;
46651;SDS011;32377;52.182;5.398;2023-04-05T12:20:51;14.88;;;7.70;;
46651;SDS011;32377;52.182;5.398;2023-04-05T12:23:17;15.00;;;7.70;;
46651;SDS011;32377;52.182;5.398;2023-04-05T12:25:51;12.48;;;7.35;;
46651;SDS011;32377;52.182;5.398;2023-04-05T12:28:18;13.18;;;7.35;;
46651;SDS011;32377;52.182;5.398;2023-04-05T12:31:02;16.27;;;7.75;;
46651;SDS011;32377;52.182;5.398;2023-04-05T12:33:33;12.68;;;7.55;;
46651;SDS011;32377;52.182;5.398;2023-04-05T12:36:05;13.30;;;7.18;;
46651;SDS011;32377;52.182;5.398;2023-04-05T12:38:32;9.68;;;6.95;;
46651;SDS011;32377;52.182;5.398;2023-04-05T12:41:01;14.50;;;7.97;;
46651;SDS011;32377;52.182;5.398;2023-04-05T12:43:37;10.73;;;7.05;;
46651;SDS011;32377;52.182;5.398;2023-04-05T12:46:10;18.73;;;7.60;;
46651;SDS011;32377;52.182;5.398;2023-04-05T12:48:40;14.15;;;7.15;;
46651;SDS011;32377;52.182;5.398;2023-04-05T12:51:12;13.75;;;7.15;;
46651;SDS011;32377;52.182;5.398;2023-04-05T12:53:43;13.07;;;7.03;;
46651;SDS011;32377;52.182;5.398;2023-04-05T12:56:11;11.15;;;7.13;;
46651;SDS011;32377;52.182;5.398;2023-04-05T12:58:37;10.68;;;7.22;;
46651;SDS011;32377;52.182;5.398;2023-04-05T13:01:04;12.60;;;7.47;;
46651;SDS011;32377;52.182;5.398;2023-04-05T13:03:29;11.00;;;7.30;;
46651;SDS011;32377;52.182;5.398;2023-04-05T13:05:55;11.82;;;7.00;;
46651;SDS011;32377;52.182;5.398;2023-04-05T13:08:22;11.32;;;7.65;;
46651;SDS011;32377;52.182;5.398;2023-04-05T13:10:48;15.60;;;7.90;;
46651;SDS011;32377;52.182;5.398;2023-04-05T13:13:14;13.98;;;7.95;;
46651;SDS011;32377;52.182;5.398;2023-04-05T13:15:41;11.60;;;7.63;;
46651;SDS011;32377;52.182;5.398;2023-04-05T13:18:07;11.95;;;7.03;;
46651;SDS011;32377;52.182;5.398;2023-04-05T13:20:33;14.02;;;8.07;;
46651;SDS011;32377;52.182;5.398;2023-04-05T13:22:59;14.48;;;7.57;;
46651;SDS011;32377;52.182;5.398;2023-04-05T13:25:25;15.20;;;7.55;;
46651;SDS011;32377;52.182;5.398;2023-04-05T13:27:51;11.70;;;7.65;;
46651;SDS011;32377;52.182;5.398;2023-04-05T13:30:16;13.27;;;8.02;;
46651;SDS011;32377;52.182;5.398;2023-04-05T13:32:43;11.00;;;7.25;;
46651;SDS011;32377;52.182;5.398;2023-04-05T13:35:08;12.95;;;8.00;;
46651;SDS011;32377;52.182;5.398;2023-04-05T13:37:34;13.25;;;8.75;;
46651;SDS011;32377;52.182;5.398;2023-04-05T13:40:00;12.80;;;8.10;;
46651;SDS011;32377;52.182;5.398;2023-04-05T13:42:25;14.07;;;8.27;;
46651;SDS011;32377;52.182;5.398;2023-04-05T13:44:51;12.90;;;7.63;;
46651;SDS011;32377;52.182;5.398;2023-04-05T13:47:16;13.55;;;8.18;;
46651;SDS011;32377;52.182;5.398;2023-04-05T13:49:42;12.75;;;7.88;;
46651;SDS011;32377;52.182;5.398;2023-04-05T13:52:08;13.27;;;8.23;;
46651;SDS011;32377;52.182;5.398;2023-04-05T13:54:33;12.93;;;7.88;;
46651;SDS011;32377;52.182;5.398;2023-04-05T13:56:59;12.50;;;7.55;;
46651;SDS011;32377;52.182;5.398;2023-04-05T13:59:25;13.70;;;9.02;;
46651;SDS011;32377;52.182;5.398;2023-04-05T14:01:51;14.02;;;8.02;;
46651;SDS011;32377;52.182;5.398;2023-04-05T14:04:17;13.52;;;8.68;;
46651;SDS011;32377;52.182;5.398;2023-04-05T14:06:42;12.57;;;8.32;;
46651;SDS011;32377;52.182;5.398;2023-04-05T14:09:09;13.73;;;8.60;;
46651;SDS011;32377;52.182;5.398;2023-04-05T14:11:35;12.05;;;8.38;;
46651;SDS011;32377;52.182;5.398;2023-04-05T14:14:01;9.73;;;7.72;;
46651;SDS011;32377;52.182;5.398;2023-04-05T14:16:27;16.77;;;7.88;;
46651;SDS011;32377;52.182;5.398;2023-04-05T14:18:53;13.73;;;8.50;;
46651;SDS011;32377;52.182;5.398;2023-04-05T14:21:19;15.80;;;8.27;;
46651;SDS011;32377;52.182;5.398;2023-04-05T14:23:45;13.10;;;8.52;;
46651;SDS011;32377;52.182;5.398;2023-04-05T14:26:11;11.63;;;7.47;;
46651;SDS011;32377;52.182;5.398;2023-04-05T14:28:37;12.40;;;8.10;;
46651;SDS011;32377;52.182;5.398;2023-04-05T14:31:02;13.40;;;8.13;;
46651;SDS011;32377;52.182;5.398;2023-04-05T14:33:28;14.75;;;8.50;;
46651;SDS011;32377;52.182;5.398;2023-04-05T14:35:54;15.00;;;8.40;;
46651;SDS011;32377;52.182;5.398;2023-04-05T14:38:19;15.85;;;8.77;;
46651;SDS011;32377;52.182;5.398;2023-04-05T14:40:45;12.70;;;8.93;;
46651;SDS011;32377;52.182;5.398;2023-04-05T14:43:11;15.57;;;9.27;;
46651;SDS011;32377;52.182;5.398;2023-04-05T14:45:36;14.60;;;8.73;;
46651;SDS011;32377;52.182;5.398;2023-04-05T14:48:02;12.88;;;7.75;;
46651;SDS011;32377;52.182;5.398;2023-04-05T14:50:28;17.05;;;8.60;;
46651;SDS011;32377;52.182;5.398;2023-04-05T14:52:57;15.52;;;8.98;;
46651;SDS011;32377;52.182;5.398;2023-04-05T14:55:23;13.07;;;8.10;;
46651;SDS011;32377;52.182;5.398;2023-04-05T14:57:49;15.05;;;9.23;;
46651;SDS011;32377;52.182;5.398;2023-04-05T15:00:15;13.23;;;9.15;;
46651;SDS011;32377;52.182;5.398;2023-04-05T15:02:41;13.80;;;8.63;;
46651;SDS011;32377;52.182;5.398;2023-04-05T15:05:08;15.30;;;8.68;;
46651;SDS011;32377;52.182;5.398;2023-04-05T15:07:34;11.02;;;7.82;;